sensor_id;sensor_type;location;lat;lon;timestamp;temperature;humidity
8676;DHT22;4375;52.486;13.424;2023-01-13T00:01:54;9.60;99.90
8676;DHT22;4375;52.486;13.424;2023-01-13T00:04:20;9.60;99.90
8676;DHT22;4375;52.486;13.424;2023-01-13T00:06:45;9.60;99.90
8676;DHT22;4375;52.486;13.424;2023-01-13T00:09:11;9.60;99.90
8676;DHT22;4375;52.486;13.424;2023-01-13T00:11:37;9.60;99.90
8676;DHT22;4375;52.486;13.424;2023-01-13T00:14:02;9.70;99.90
8676;DHT22;4375;52.486;13.424;2023-01-13T00:16:28;9.60;99.90
8676;DHT22;4375;52.486;13.424;2023-01-13T00:18:53;9.60;99.90
8676;DHT22;4375;52.486;13.424;2023-01-13T00:21:21;9.70;99.90
8676;DHT22;4375;52.486;13.424;2023-01-13T00:23:48;9.70;99.90
8676;DHT22;4375;52.486;13.424;2023-01-13T00:26:19;9.70;99.90
8676;DHT22;4375;52.486;13.424;2023-01-13T00:28:46;9.70;99.90
8676;DHT22;4375;52.486;13.424;2023-01-13T00:31:15;9.70;99.90
8676;DHT22;4375;52.486;13.424;2023-01-13T00:33:41;9.70;99.90
8676;DHT22;4375;52.486;13.424;2023-01-13T00:36:09;9.70;99.90
8676;DHT22;4375;52.486;13.424;2023-01-13T00:38:35;9.70;99.90
8676;DHT22;4375;52.486;13.424;2023-01-13T00:41:08;9.70;99.90
8676;DHT22;4375;52.486;13.424;2023-01-13T00:43:35;9.70;99.90
8676;DHT22;4375;52.486;13.424;2023-01-13T00:46:03;9.70;99.90
8676;DHT22;4375;52.486;13.424;2023-01-13T00:48:29;9.70;99.90
8676;DHT22;4375;52.486;13.424;2023-01-13T00:51:00;9.70;99.90
8676;DHT22;4375;52.486;13.424;2023-01-13T00:53:26;9.70;99.90
8676;DHT22;4375;52.486;13.424;2023-01-13T00:56:03;9.70;99.90
8676;DHT22;4375;52.486;13.424;2023-01-13T00:58:31;9.70;99.90
8676;DHT22;4375;52.486;13.424;2023-01-13T01:01:06;9.70;99.90
8676;DHT22;4375;52.486;13.424;2023-01-13T01:03:33;9.70;99.90
8676;DHT22;4375;52.486;13.424;2023-01-13T01:06:07;9.70;99.90
8676;DHT22;4375;52.486;13.424;2023-01-13T01:08:34;9.70;99.90
8676;DHT22;4375;52.486;13.424;2023-01-13T01:11:01;9.70;99.90
8676;DHT22;4375;52.486;13.424;2023-01-13T01:13:27;9.80;99.90
8676;DHT22;4375;52.486;13.424;2023-01-13T01:15:53;9.80;99.90
8676;DHT22;4375;52.486;13.424;2023-01-13T01:18:18;9.80;99.90
8676;DHT22;4375;52.486;13.424;2023-01-13T01:20:44;9.80;99.90
8676;DHT22;4375;52.486;13.424;2023-01-13T01:23:10;9.80;99.90
8676;DHT22;4375;52.486;13.424;2023-01-13T01:25:35;9.80;99.90
8676;DHT22;4375;52.486;13.424;2023-01-13T01:28:01;9.70;99.90
8676;DHT22;4375;52.486;13.424;2023-01-13T01:30:26;9.80;99.90
8676;DHT22;4375;52.486;13.424;2023-01-13T01:32:52;9.80;99.90
8676;DHT22;4375;52.486;13.424;2023-01-13T01:35:18;9.80;99.90
8676;DHT22;4375;52.486;13.424;2023-01-13T01:37:43;9.80;99.90
8676;DHT22;4375;52.486;13.424;2023-01-13T01:40:09;9.90;99.90
8676;DHT22;4375;52.486;13.424;2023-01-13T01:42:35;9.80;99.90
8676;DHT22;4375;52.486;13.424;2023-01-13T01:45:21;9.90;99.90
8676;DHT22;4375;52.486;13.424;2023-01-13T01:47:50;9.90;99.90
8676;DHT22;4375;52.486;13.424;2023-01-13T01:50:17;9.80;99.90
8676;DHT22;4375;52.486;13.424;2023-01-13T01:52:47;9.80;99.90
8676;DHT22;4375;52.486;13.424;2023-01-13T01:55:22;9.80;99.90
8676;DHT22;4375;52.486;13.424;2023-01-13T01:58:01;9.90;99.90
8676;DHT22;4375;52.486;13.424;2023-01-13T02:00:30;9.90;99.90
8676;DHT22;4375;52.486;13.424;2023-01-13T02:02:56;9.90;99.90
8676;DHT22;4375;52.486;13.424;2023-01-13T02:05:23;10.00;99.90
8676;DHT22;4375;52.486;13.424;2023-01-13T02:07:52;9.90;99.90
8676;DHT22;4375;52.486;13.424;2023-01-13T02:10:24;9.90;99.90
8676;DHT22;4375;52.486;13.424;2023-01-13T02:12:53;10.00;99.90
8676;DHT22;4375;52.486;13.424;2023-01-13T02:15:34;10.00;99.90
8676;DHT22;4375;52.486;13.424;2023-01-13T02:41:51;9.80;99.90
8676;DHT22;4375;52.486;13.424;2023-01-13T02:44:47;9.90;99.90
8676;DHT22;4375;52.486;13.424;2023-01-13T02:50:06;9.80;99.90
8676;DHT22;4375;52.486;13.424;2023-01-13T02:52:39;9.90;99.90
8676;DHT22;4375;52.486;13.424;2023-01-13T02:55:14;9.90;99.90
8676;DHT22;4375;52.486;13.424;2023-01-13T02:57:43;9.90;99.90
8676;DHT22;4375;52.486;13.424;2023-01-13T03:00:11;9.90;99.90
8676;DHT22;4375;52.486;13.424;2023-01-13T03:02:38;9.90;99.90
8676;DHT22;4375;52.486;13.424;2023-01-13T03:05:04;9.90;99.90
8676;DHT22;4375;52.486;13.424;2023-01-13T03:16:27;9.80;99.90
8676;DHT22;4375;52.486;13.424;2023-01-13T03:29:37;9.80;99.90
8676;DHT22;4375;52.486;13.424;2023-01-13T03:32:17;9.90;99.90
8676;DHT22;4375;52.486;13.424;2023-01-13T03:35:02;9.90;99.90
8676;DHT22;4375;52.486;13.424;2023-01-13T03:37:35;9.90;99.90
8676;DHT22;4375;52.486;13.424;2023-01-13T03:40:17;9.90;99.90
8676;DHT22;4375;52.486;13.424;2023-01-13T03:42:51;9.90;99.90
8676;DHT22;4375;52.486;13.424;2023-01-13T03:45:38;9.90;99.90
8676;DHT22;4375;52.486;13.424;2023-01-13T03:48:08;9.80;99.90
8676;DHT22;4375;52.486;13.424;2023-01-13T03:50:41;9.80;99.90
8676;DHT22;4375;52.486;13.424;2023-01-13T03:53:16;9.80;99.90
8676;DHT22;4375;52.486;13.424;2023-01-13T03:55:47;9.70;99.90
8676;DHT22;4375;52.486;13.424;2023-01-13T03:58:19;9.70;99.90
8676;DHT22;4375;52.486;13.424;2023-01-13T04:00:46;9.70;99.90
8676;DHT22;4375;52.486;13.424;2023-01-13T04:03:22;9.70;99.90
8676;DHT22;4375;52.486;13.424;2023-01-13T04:05:52;9.70;99.90
8676;DHT22;4375;52.486;13.424;2023-01-13T04:08:26;9.70;99.90
8676;DHT22;4375;52.486;13.424;2023-01-13T04:10:59;9.70;99.90
8676;DHT22;4375;52.486;13.424;2023-01-13T04:13:30;9.70;99.90
8676;DHT22;4375;52.486;13.424;2023-01-13T04:15:56;9.70;99.90
8676;DHT22;4375;52.486;13.424;2023-01-13T04:18:26;9.70;99.90
8676;DHT22;4375;52.486;13.424;2023-01-13T04:20:55;9.70;99.90
8676;DHT22;4375;52.486;13.424;2023-01-13T04:23:21;9.70;99.90
8676;DHT22;4375;52.486;13.424;2023-01-13T04:25:48;9.70;99.90
8676;DHT22;4375;52.486;13.424;2023-01-13T04:28:14;9.70;99.90
8676;DHT22;4375;52.486;13.424;2023-01-13T04:30:41;9.70;99.90
8676;DHT22;4375;52.486;13.424;2023-01-13T04:33:07;9.70;99.90
8676;DHT22;4375;52.486;13.424;2023-01-13T04:35:33;9.80;99.90
8676;DHT22;4375;52.486;13.424;2023-01-13T04:38:19;9.70;99.90
8676;DHT22;4375;52.486;13.424;2023-01-13T04:40:45;9.70;99.90
8676;DHT22;4375;52.486;13.424;2023-01-13T04:43:11;9.60;99.90
8676;DHT22;4375;52.486;13.424;2023-01-13T04:45:37;9.60;99.90
8676;DHT22;4375;52.486;13.424;2023-01-13T04:48:03;9.60;99.90
8676;DHT22;4375;52.486;13.424;2023-01-13T04:50:29;9.60;99.90
8676;DHT22;4375;52.486;13.424;2023-01-13T04:52:55;9.60;99.90
8676;DHT22;4375;52.486;13.424;2023-01-13T04:55:22;9.60;99.90
8676;DHT22;4375;52.486;13.424;2023-01-13T04:57:48;9.60;99.90
8676;DHT22;4375;52.486;13.424;2023-01-13T05:00:15;9.60;99.90
8676;DHT22;4375;52.486;13.424;2023-01-13T05:02:41;9.60;99.90
8676;DHT22;4375;52.486;13.424;2023-01-13T05:05:08;9.50;99.90
8676;DHT22;4375;52.486;13.424;2023-01-13T05:07:34;9.50;99.90
8676;DHT22;4375;52.486;13.424;2023-01-13T05:09:59;9.50;99.90
8676;DHT22;4375;52.486;13.424;2023-01-13T05:12:25;9.60;99.90
8676;DHT22;4375;52.486;13.424;2023-01-13T05:15:13;9.60;99.90
8676;DHT22;4375;52.486;13.424;2023-01-13T05:17:58;9.70;99.90
8676;DHT22;4375;52.486;13.424;2023-01-13T05:20:24;9.70;99.90
8676;DHT22;4375;52.486;13.424;2023-01-13T05:22:50;9.80;99.90
8676;DHT22;4375;52.486;13.424;2023-01-13T05:25:38;9.80;99.90
8676;DHT22;4375;52.486;13.424;2023-01-13T05:28:04;9.90;99.90
8676;DHT22;4375;52.486;13.424;2023-01-13T05:30:36;9.90;99.90
8676;DHT22;4375;52.486;13.424;2023-01-13T05:33:03;9.90;99.90
8676;DHT22;4375;52.486;13.424;2023-01-13T05:35:28;9.80;99.90
8676;DHT22;4375;52.486;13.424;2023-01-13T05:37:55;9.80;99.90
8676;DHT22;4375;52.486;13.424;2023-01-13T05:40:21;9.80;99.90
8676;DHT22;4375;52.486;13.424;2023-01-13T05:43:12;9.90;99.90
8676;DHT22;4375;52.486;13.424;2023-01-13T05:45:49;9.90;99.90
8676;DHT22;4375;52.486;13.424;2023-01-13T05:48:16;9.90;99.90
8676;DHT22;4375;52.486;13.424;2023-01-13T05:50:42;9.90;99.90
8676;DHT22;4375;52.486;13.424;2023-01-13T05:53:09;9.90;99.90
8676;DHT22;4375;52.486;13.424;2023-01-13T05:55:36;9.90;99.90
8676;DHT22;4375;52.486;13.424;2023-01-13T05:58:02;9.80;99.90
8676;DHT22;4375;52.486;13.424;2023-01-13T06:00:27;9.80;99.90
8676;DHT22;4375;52.486;13.424;2023-01-13T06:02:53;9.90;99.90
8676;DHT22;4375;52.486;13.424;2023-01-13T06:05:18;9.90;99.90
8676;DHT22;4375;52.486;13.424;2023-01-13T06:07:44;9.90;99.90
8676;DHT22;4375;52.486;13.424;2023-01-13T06:10:10;9.90;99.90
8676;DHT22;4375;52.486;13.424;2023-01-13T06:12:35;9.90;99.90
8676;DHT22;4375;52.486;13.424;2023-01-13T06:15:01;9.90;99.90
8676;DHT22;4375;52.486;13.424;2023-01-13T06:17:27;10.00;99.90
8676;DHT22;4375;52.486;13.424;2023-01-13T06:19:53;9.90;99.90
8676;DHT22;4375;52.486;13.424;2023-01-13T06:22:23;10.00;99.90
8676;DHT22;4375;52.486;13.424;2023-01-13T06:24:50;10.00;99.90
8676;DHT22;4375;52.486;13.424;2023-01-13T06:27:18;9.90;99.90
8676;DHT22;4375;52.486;13.424;2023-01-13T06:29:44;9.90;99.90
8676;DHT22;4375;52.486;13.424;2023-01-13T06:32:19;9.90;99.90
8676;DHT22;4375;52.486;13.424;2023-01-13T06:34:50;9.90;99.90
8676;DHT22;4375;52.486;13.424;2023-01-13T06:37:18;9.90;99.90
8676;DHT22;4375;52.486;13.424;2023-01-13T06:39:46;9.90;99.90
8676;DHT22;4375;52.486;13.424;2023-01-13T06:42:12;9.90;99.90
8676;DHT22;4375;52.486;13.424;2023-01-13T06:44:57;9.90;99.90
8676;DHT22;4375;52.486;13.424;2023-01-13T06:47:22;10.00;99.90
8676;DHT22;4375;52.486;13.424;2023-01-13T06:49:48;10.00;99.90
8676;DHT22;4375;52.486;13.424;2023-01-13T06:52:14;10.00;99.90
8676;DHT22;4375;52.486;13.424;2023-01-13T06:54:39;10.10;99.90
8676;DHT22;4375;52.486;13.424;2023-01-13T06:57:05;10.10;99.90
8676;DHT22;4375;52.486;13.424;2023-01-13T06:59:30;10.10;99.90
8676;DHT22;4375;52.486;13.424;2023-01-13T07:01:59;10.00;99.90
8676;DHT22;4375;52.486;13.424;2023-01-13T07:04:25;10.00;99.90
8676;DHT22;4375;52.486;13.424;2023-01-13T07:06:51;10.00;99.90
8676;DHT22;4375;52.486;13.424;2023-01-13T07:09:16;10.10;99.90
8676;DHT22;4375;52.486;13.424;2023-01-13T07:11:42;10.00;99.90
8676;DHT22;4375;52.486;13.424;2023-01-13T07:14:08;10.00;99.90
8676;DHT22;4375;52.486;13.424;2023-01-13T07:16:52;10.00;99.90
8676;DHT22;4375;52.486;13.424;2023-01-13T07:19:19;9.90;99.90
8676;DHT22;4375;52.486;13.424;2023-01-13T07:21:51;10.00;99.90
8676;DHT22;4375;52.486;13.424;2023-01-13T07:24:17;10.00;99.90
8676;DHT22;4375;52.486;13.424;2023-01-13T07:26:43;10.00;99.90
8676;DHT22;4375;52.486;13.424;2023-01-13T07:29:09;10.00;99.90
8676;DHT22;4375;52.486;13.424;2023-01-13T07:31:35;10.00;99.90
8676;DHT22;4375;52.486;13.424;2023-01-13T07:34:01;10.00;99.90
8676;DHT22;4375;52.486;13.424;2023-01-13T07:36:26;10.00;99.90
8676;DHT22;4375;52.486;13.424;2023-01-13T07:38:52;10.10;99.90
8676;DHT22;4375;52.486;13.424;2023-01-13T07:41:18;10.10;99.90
8676;DHT22;4375;52.486;13.424;2023-01-13T07:44:05;10.00;99.90
8676;DHT22;4375;52.486;13.424;2023-01-13T07:46:32;10.00;99.90
8676;DHT22;4375;52.486;13.424;2023-01-13T07:48:58;10.00;99.90
8676;DHT22;4375;52.486;13.424;2023-01-13T07:51:24;9.90;99.90
8676;DHT22;4375;52.486;13.424;2023-01-13T07:53:49;10.00;99.90
8676;DHT22;4375;52.486;13.424;2023-01-13T07:56:15;10.00;99.90
8676;DHT22;4375;52.486;13.424;2023-01-13T07:58:41;10.00;99.90
8676;DHT22;4375;52.486;13.424;2023-01-13T08:01:11;10.00;99.90
8676;DHT22;4375;52.486;13.424;2023-01-13T08:03:37;10.00;99.90
8676;DHT22;4375;52.486;13.424;2023-01-13T08:06:04;10.00;99.90
8676;DHT22;4375;52.486;13.424;2023-01-13T08:08:30;10.00;99.90
8676;DHT22;4375;52.486;13.424;2023-01-13T08:10:59;9.90;99.90
8676;DHT22;4375;52.486;13.424;2023-01-13T08:13:25;9.90;99.90
8676;DHT22;4375;52.486;13.424;2023-01-13T08:15:59;9.90;99.90
8676;DHT22;4375;52.486;13.424;2023-01-13T08:18:25;9.90;99.90
8676;DHT22;4375;52.486;13.424;2023-01-13T08:20:51;9.90;99.90
8676;DHT22;4375;52.486;13.424;2023-01-13T08:23:18;10.00;99.90
8676;DHT22;4375;52.486;13.424;2023-01-13T08:25:44;10.00;99.90
8676;DHT22;4375;52.486;13.424;2023-01-13T08:28:11;10.00;99.90
8676;DHT22;4375;52.486;13.424;2023-01-13T08:30:36;9.90;99.90
8676;DHT22;4375;52.486;13.424;2023-01-13T08:33:05;10.10;99.90
8676;DHT22;4375;52.486;13.424;2023-01-13T08:35:32;9.90;99.90
8676;DHT22;4375;52.486;13.424;2023-01-13T08:37:57;9.90;99.90
8676;DHT22;4375;52.486;13.424;2023-01-13T08:40:23;9.90;99.90
8676;DHT22;4375;52.486;13.424;2023-01-13T08:42:49;9.90;99.90
8676;DHT22;4375;52.486;13.424;2023-01-13T08:45:15;10.00;99.90
8676;DHT22;4375;52.486;13.424;2023-01-13T08:47:40;10.00;99.90
8676;DHT22;4375;52.486;13.424;2023-01-13T08:50:07;10.00;99.90
8676;DHT22;4375;52.486;13.424;2023-01-13T08:52:32;10.00;99.90
8676;DHT22;4375;52.486;13.424;2023-01-13T08:54:58;10.00;99.90
8676;DHT22;4375;52.486;13.424;2023-01-13T08:57:23;10.00;99.90
8676;DHT22;4375;52.486;13.424;2023-01-13T08:59:49;10.00;99.90
8676;DHT22;4375;52.486;13.424;2023-01-13T09:02:20;10.00;99.90
8676;DHT22;4375;52.486;13.424;2023-01-13T09:04:46;9.90;99.90
8676;DHT22;4375;52.486;13.424;2023-01-13T09:07:12;9.90;99.90
8676;DHT22;4375;52.486;13.424;2023-01-13T09:09:38;9.90;99.90
8676;DHT22;4375;52.486;13.424;2023-01-13T09:12:04;9.90;99.90
8676;DHT22;4375;52.486;13.424;2023-01-13T09:14:48;9.80;99.90
8676;DHT22;4375;52.486;13.424;2023-01-13T09:17:14;9.90;99.90
8676;DHT22;4375;52.486;13.424;2023-01-13T09:19:40;9.90;99.90
8676;DHT22;4375;52.486;13.424;2023-01-13T09:22:06;9.90;99.90
8676;DHT22;4375;52.486;13.424;2023-01-13T09:24:32;9.90;99.90
8676;DHT22;4375;52.486;13.424;2023-01-13T09:26:58;9.90;99.90
8676;DHT22;4375;52.486;13.424;2023-01-13T09:29:23;10.00;99.90
8676;DHT22;4375;52.486;13.424;2023-01-13T09:31:49;10.00;99.90
8676;DHT22;4375;52.486;13.424;2023-01-13T09:34:17;10.10;99.90
8676;DHT22;4375;52.486;13.424;2023-01-13T09:37:02;10.10;99.90
8676;DHT22;4375;52.486;13.424;2023-01-13T09:39:28;10.00;99.90
8676;DHT22;4375;52.486;13.424;2023-01-13T09:41:56;10.10;99.90
8676;DHT22;4375;52.486;13.424;2023-01-13T09:44:54;10.20;99.90
8676;DHT22;4375;52.486;13.424;2023-01-13T09:47:26;10.20;99.90
8676;DHT22;4375;52.486;13.424;2023-01-13T09:50:01;10.20;99.90
8676;DHT22;4375;52.486;13.424;2023-01-13T09:52:28;10.20;99.90
8676;DHT22;4375;52.486;13.424;2023-01-13T09:57:40;10.00;99.90
8676;DHT22;4375;52.486;13.424;2023-01-13T10:00:15;10.00;99.90
8676;DHT22;4375;52.486;13.424;2023-01-13T10:06:18;9.80;99.90
8676;DHT22;4375;52.486;13.424;2023-01-13T10:08:44;9.80;99.90
8676;DHT22;4375;52.486;13.424;2023-01-13T10:11:22;9.70;99.90
8676;DHT22;4375;52.486;13.424;2023-01-13T10:14:23;9.60;99.90
8676;DHT22;4375;52.486;13.424;2023-01-13T10:22:35;9.60;99.90
8676;DHT22;4375;52.486;13.424;2023-01-13T10:25:23;9.60;99.90
8676;DHT22;4375;52.486;13.424;2023-01-13T10:27:53;9.60;99.90
8676;DHT22;4375;52.486;13.424;2023-01-13T10:30:21;9.70;99.90
8676;DHT22;4375;52.486;13.424;2023-01-13T10:35:57;9.70;99.90
8676;DHT22;4375;52.486;13.424;2023-01-13T10:43:55;9.70;99.90
8676;DHT22;4375;52.486;13.424;2023-01-13T10:46:21;9.70;99.90
8676;DHT22;4375;52.486;13.424;2023-01-13T10:51:29;9.80;99.90
8676;DHT22;4375;52.486;13.424;2023-01-13T10:54:01;9.80;99.90
8676;DHT22;4375;52.486;13.424;2023-01-13T10:56:33;9.90;99.90
8676;DHT22;4375;52.486;13.424;2023-01-13T11:01:34;9.90;99.90
8676;DHT22;4375;52.486;13.424;2023-01-13T11:03:59;10.00;99.90
8676;DHT22;4375;52.486;13.424;2023-01-13T11:06:29;10.00;99.90
8676;DHT22;4375;52.486;13.424;2023-01-13T11:08:56;10.10;99.90
8676;DHT22;4375;52.486;13.424;2023-01-13T11:13:55;10.20;99.90
8676;DHT22;4375;52.486;13.424;2023-01-13T11:16:43;10.30;99.90
8676;DHT22;4375;52.486;13.424;2023-01-13T11:19:15;10.30;99.90
8676;DHT22;4375;52.486;13.424;2023-01-13T11:24:17;10.30;99.90
8676;DHT22;4375;52.486;13.424;2023-01-13T11:26:57;10.30;99.90
8676;DHT22;4375;52.486;13.424;2023-01-13T11:32:22;10.10;99.90
8676;DHT22;4375;52.486;13.424;2023-01-13T11:34:52;10.10;99.90
8676;DHT22;4375;52.486;13.424;2023-01-13T11:37:25;10.00;99.90
8676;DHT22;4375;52.486;13.424;2023-01-13T11:40:36;10.00;99.90
8676;DHT22;4375;52.486;13.424;2023-01-13T11:45:59;10.10;99.90
8676;DHT22;4375;52.486;13.424;2023-01-13T11:48:28;10.10;99.90
8676;DHT22;4375;52.486;13.424;2023-01-13T11:54:27;10.10;99.90
8676;DHT22;4375;52.486;13.424;2023-01-13T11:59:43;10.10;99.90
8676;DHT22;4375;52.486;13.424;2023-01-13T12:05:46;10.10;99.90
8676;DHT22;4375;52.486;13.424;2023-01-13T12:16:22;10.20;99.90
8676;DHT22;4375;52.486;13.424;2023-01-13T12:19:02;10.20;99.90
8676;DHT22;4375;52.486;13.424;2023-01-13T12:22:19;10.30;99.90
8676;DHT22;4375;52.486;13.424;2023-01-13T12:27:17;10.40;99.90
8676;DHT22;4375;52.486;13.424;2023-01-13T12:29:45;10.40;99.90
8676;DHT22;4375;52.486;13.424;2023-01-13T12:32:15;10.30;99.90
8676;DHT22;4375;52.486;13.424;2023-01-13T12:37:30;10.40;99.90
8676;DHT22;4375;52.486;13.424;2023-01-13T12:40:10;10.40;99.90
8676;DHT22;4375;52.486;13.424;2023-01-13T12:42:54;10.40;99.90
8676;DHT22;4375;52.486;13.424;2023-01-13T12:45:41;10.40;99.90
8676;DHT22;4375;52.486;13.424;2023-01-13T12:51:31;10.40;99.90
8676;DHT22;4375;52.486;13.424;2023-01-13T12:56:51;10.40;99.90
8676;DHT22;4375;52.486;13.424;2023-01-13T13:05:30;10.50;99.90
8676;DHT22;4375;52.486;13.424;2023-01-13T13:08:05;10.50;99.90
8676;DHT22;4375;52.486;13.424;2023-01-13T13:10:37;10.40;99.90
8676;DHT22;4375;52.486;13.424;2023-01-13T13:13:21;10.50;99.90
8676;DHT22;4375;52.486;13.424;2023-01-13T13:18:51;10.50;99.90
8676;DHT22;4375;52.486;13.424;2023-01-13T13:21:20;10.50;99.90
8676;DHT22;4375;52.486;13.424;2023-01-13T13:29:26;10.50;99.90
8676;DHT22;4375;52.486;13.424;2023-01-13T13:40:23;10.50;99.90
8676;DHT22;4375;52.486;13.424;2023-01-13T13:43:11;10.60;99.90
8676;DHT22;4375;52.486;13.424;2023-01-13T13:45:56;10.50;99.90
8676;DHT22;4375;52.486;13.424;2023-01-13T13:48:50;10.50;99.90
8676;DHT22;4375;52.486;13.424;2023-01-13T13:51:28;10.30;99.90
8676;DHT22;4375;52.486;13.424;2023-01-13T13:53:56;10.30;99.90
8676;DHT22;4375;52.486;13.424;2023-01-13T13:56:26;10.30;99.90
8676;DHT22;4375;52.486;13.424;2023-01-13T13:58:54;10.20;99.90
8676;DHT22;4375;52.486;13.424;2023-01-13T14:01:25;10.20;99.90
8676;DHT22;4375;52.486;13.424;2023-01-13T14:04:04;10.10;99.90
8676;DHT22;4375;52.486;13.424;2023-01-13T14:06:30;10.10;99.90
8676;DHT22;4375;52.486;13.424;2023-01-13T14:08:57;10.10;99.90
8676;DHT22;4375;52.486;13.424;2023-01-13T14:11:26;10.00;99.90
8676;DHT22;4375;52.486;13.424;2023-01-13T14:14:10;10.00;99.90
8676;DHT22;4375;52.486;13.424;2023-01-13T14:16:37;10.00;99.90
8676;DHT22;4375;52.486;13.424;2023-01-13T14:19:04;9.90;99.90
8676;DHT22;4375;52.486;13.424;2023-01-13T14:21:39;10.00;99.90
8676;DHT22;4375;52.486;13.424;2023-01-13T14:24:15;10.00;99.90
8676;DHT22;4375;52.486;13.424;2023-01-13T14:26:42;10.10;99.90
8676;DHT22;4375;52.486;13.424;2023-01-13T14:29:12;10.10;99.90
8676;DHT22;4375;52.486;13.424;2023-01-13T14:31:41;10.10;99.90
8676;DHT22;4375;52.486;13.424;2023-01-13T14:34:10;10.10;99.90
8676;DHT22;4375;52.486;13.424;2023-01-13T14:36:37;10.10;99.90
8676;DHT22;4375;52.486;13.424;2023-01-13T14:41:35;10.20;99.90
8676;DHT22;4375;52.486;13.424;2023-01-13T14:47:26;10.20;99.90
8676;DHT22;4375;52.486;13.424;2023-01-13T14:50:03;10.30;99.90
8676;DHT22;4375;52.486;13.424;2023-01-13T14:52:32;10.20;99.90
8676;DHT22;4375;52.486;13.424;2023-01-13T14:57:33;10.30;99.90
8676;DHT22;4375;52.486;13.424;2023-01-13T15:13:42;10.10;99.90
8676;DHT22;4375;52.486;13.424;2023-01-13T15:16:19;10.00;99.90
8676;DHT22;4375;52.486;13.424;2023-01-13T15:18:46;10.00;99.90
8676;DHT22;4375;52.486;13.424;2023-01-13T15:21:12;9.90;99.90
8676;DHT22;4375;52.486;13.424;2023-01-13T15:23:40;9.90;99.90
8676;DHT22;4375;52.486;13.424;2023-01-13T15:26:21;9.80;99.90
8676;DHT22;4375;52.486;13.424;2023-01-13T15:28:49;9.70;99.90
8676;DHT22;4375;52.486;13.424;2023-01-13T15:31:14;9.70;99.90
8676;DHT22;4375;52.486;13.424;2023-01-13T15:33:40;9.60;99.90
8676;DHT22;4375;52.486;13.424;2023-01-13T15:36:37;9.60;99.90
8676;DHT22;4375;52.486;13.424;2023-01-13T15:39:03;9.50;99.90
8676;DHT22;4375;52.486;13.424;2023-01-13T15:41:28;9.50;99.90
8676;DHT22;4375;52.486;13.424;2023-01-13T15:44:15;9.50;99.90
8676;DHT22;4375;52.486;13.424;2023-01-13T15:47:02;9.40;99.90
8676;DHT22;4375;52.486;13.424;2023-01-13T15:49:39;9.30;99.90
8676;DHT22;4375;52.486;13.424;2023-01-13T15:54:44;9.30;99.90
8676;DHT22;4375;52.486;13.424;2023-01-13T15:57:27;9.30;99.90
8676;DHT22;4375;52.486;13.424;2023-01-13T15:59:56;9.30;99.90
8676;DHT22;4375;52.486;13.424;2023-01-13T16:02:22;9.30;99.90
8676;DHT22;4375;52.486;13.424;2023-01-13T16:04:50;9.30;99.90
8676;DHT22;4375;52.486;13.424;2023-01-13T16:07:19;9.40;99.90
8676;DHT22;4375;52.486;13.424;2023-01-13T16:09:45;9.40;99.90
8676;DHT22;4375;52.486;13.424;2023-01-13T16:12:12;9.30;99.90
8676;DHT22;4375;52.486;13.424;2023-01-13T16:14:38;9.40;99.90
8676;DHT22;4375;52.486;13.424;2023-01-13T16:17:15;9.40;99.90
8676;DHT22;4375;52.486;13.424;2023-01-13T16:19:42;9.40;99.90
8676;DHT22;4375;52.486;13.424;2023-01-13T16:22:10;9.30;99.90
8676;DHT22;4375;52.486;13.424;2023-01-13T16:24:36;9.40;99.90
8676;DHT22;4375;52.486;13.424;2023-01-13T16:27:04;9.30;99.90
8676;DHT22;4375;52.486;13.424;2023-01-13T16:29:30;9.30;99.90
8676;DHT22;4375;52.486;13.424;2023-01-13T16:31:57;9.30;99.90
8676;DHT22;4375;52.486;13.424;2023-01-13T16:34:23;9.30;99.90
8676;DHT22;4375;52.486;13.424;2023-01-13T16:36:48;9.30;99.90
8676;DHT22;4375;52.486;13.424;2023-01-13T16:39:19;9.30;99.90
8676;DHT22;4375;52.486;13.424;2023-01-13T16:41:45;9.40;99.90
8676;DHT22;4375;52.486;13.424;2023-01-13T16:44:11;9.40;99.90
8676;DHT22;4375;52.486;13.424;2023-01-13T16:46:36;9.40;99.90
8676;DHT22;4375;52.486;13.424;2023-01-13T16:49:04;9.40;99.90
8676;DHT22;4375;52.486;13.424;2023-01-13T16:51:30;9.40;99.90
8676;DHT22;4375;52.486;13.424;2023-01-13T16:53:58;9.40;99.90
8676;DHT22;4375;52.486;13.424;2023-01-13T16:56:26;9.30;99.90
8676;DHT22;4375;52.486;13.424;2023-01-13T16:58:53;9.30;99.90
8676;DHT22;4375;52.486;13.424;2023-01-13T17:01:28;9.20;99.90
8676;DHT22;4375;52.486;13.424;2023-01-13T17:03:55;9.20;99.90
8676;DHT22;4375;52.486;13.424;2023-01-13T17:09:21;9.10;99.90
8676;DHT22;4375;52.486;13.424;2023-01-13T17:11:45;9.10;99.90
8676;DHT22;4375;52.486;13.424;2023-01-13T17:14:11;9.10;99.90
8676;DHT22;4375;52.486;13.424;2023-01-13T17:16:36;9.10;99.90
8676;DHT22;4375;52.486;13.424;2023-01-13T17:19:02;9.10;99.90
8676;DHT22;4375;52.486;13.424;2023-01-13T17:21:28;9.10;99.90
8676;DHT22;4375;52.486;13.424;2023-01-13T17:23:53;9.10;99.90
8676;DHT22;4375;52.486;13.424;2023-01-13T17:28:54;9.10;99.90
8676;DHT22;4375;52.486;13.424;2023-01-13T17:31:20;9.10;99.90
8676;DHT22;4375;52.486;13.424;2023-01-13T17:33:45;9.00;99.90
8676;DHT22;4375;52.486;13.424;2023-01-13T17:36:11;9.00;99.90
8676;DHT22;4375;52.486;13.424;2023-01-13T17:38:36;9.00;99.90
8676;DHT22;4375;52.486;13.424;2023-01-13T17:41:03;9.00;99.90
8676;DHT22;4375;52.486;13.424;2023-01-13T17:43:30;9.00;99.90
8676;DHT22;4375;52.486;13.424;2023-01-13T17:45:56;9.00;99.90
8676;DHT22;4375;52.486;13.424;2023-01-13T17:48:22;9.00;99.90
8676;DHT22;4375;52.486;13.424;2023-01-13T17:50:48;8.90;99.90
8676;DHT22;4375;52.486;13.424;2023-01-13T17:53:16;8.90;99.90
8676;DHT22;4375;52.486;13.424;2023-01-13T17:55:52;9.00;99.90
8676;DHT22;4375;52.486;13.424;2023-01-13T17:58:19;8.90;99.90
8676;DHT22;4375;52.486;13.424;2023-01-13T18:00:45;8.90;99.90
8676;DHT22;4375;52.486;13.424;2023-01-13T18:03:11;8.80;99.90
8676;DHT22;4375;52.486;13.424;2023-01-13T18:05:37;8.80;99.90
8676;DHT22;4375;52.486;13.424;2023-01-13T18:08:03;8.90;99.90
8676;DHT22;4375;52.486;13.424;2023-01-13T18:10:29;8.90;99.90
8676;DHT22;4375;52.486;13.424;2023-01-13T18:12:55;8.90;99.90
8676;DHT22;4375;52.486;13.424;2023-01-13T18:15:20;8.90;99.90
8676;DHT22;4375;52.486;13.424;2023-01-13T18:17:46;8.80;99.90
8676;DHT22;4375;52.486;13.424;2023-01-13T18:20:13;8.80;99.90
8676;DHT22;4375;52.486;13.424;2023-01-13T18:22:57;8.90;99.90
8676;DHT22;4375;52.486;13.424;2023-01-13T18:25:42;8.90;99.90
8676;DHT22;4375;52.486;13.424;2023-01-13T18:28:26;8.90;99.90
8676;DHT22;4375;52.486;13.424;2023-01-13T18:30:51;9.00;99.90
8676;DHT22;4375;52.486;13.424;2023-01-13T18:33:17;9.10;99.90
8676;DHT22;4375;52.486;13.424;2023-01-13T18:35:42;9.10;99.90
8676;DHT22;4375;52.486;13.424;2023-01-13T18:38:08;9.10;99.90
8676;DHT22;4375;52.486;13.424;2023-01-13T18:40:37;9.10;99.90
8676;DHT22;4375;52.486;13.424;2023-01-13T18:43:02;9.00;99.90
8676;DHT22;4375;52.486;13.424;2023-01-13T18:45:29;9.00;99.90
8676;DHT22;4375;52.486;13.424;2023-01-13T18:47:58;9.00;99.90
8676;DHT22;4375;52.486;13.424;2023-01-13T18:50:24;8.90;99.90
8676;DHT22;4375;52.486;13.424;2023-01-13T18:52:50;8.90;99.90
8676;DHT22;4375;52.486;13.424;2023-01-13T18:55:16;8.90;99.90
8676;DHT22;4375;52.486;13.424;2023-01-13T18:57:42;8.90;99.90
8676;DHT22;4375;52.486;13.424;2023-01-13T19:00:11;8.90;99.90